createdAt,value
2022-12-18T00:00:14.918Z,48.05
2022-12-18T00:02:44.597Z,52.22
2022-12-18T00:05:13.346Z,63.90
2022-12-18T00:07:41.483Z,58.38
2022-12-18T00:10:10.875Z,53.60
2022-12-18T00:12:43.473Z,57.95
2022-12-18T00:15:11.871Z,73.03
2022-12-18T00:17:40.680Z,84.47
2022-12-18T00:20:12.778Z,85.97
2022-12-18T00:22:41.416Z,97.50
2022-12-18T00:25:10.949Z,74.85
2022-12-18T00:27:39.584Z,67.32
2022-12-18T00:30:10.366Z,59.75
2022-12-18T00:32:39.624Z,64.50
2022-12-18T00:35:11.225Z,65.40
2022-12-18T00:37:39.754Z,65.47
2022-12-18T00:40:10.188Z,63.97
2022-12-18T00:42:56.451Z,62.90
2022-12-18T00:45:27.993Z,64.07
2022-12-18T00:47:57.146Z,64.55
2022-12-18T00:50:27.777Z,55.45
2022-12-18T00:52:56.208Z,60.92
2022-12-18T00:55:24.517Z,58.72
2022-12-18T00:57:54.093Z,59.03
2022-12-18T01:00:23.084Z,59.20
2022-12-18T01:02:51.988Z,57.95
2022-12-18T01:05:20.475Z,55.92
2022-12-18T01:07:50.290Z,57.45
2022-12-18T01:10:19.016Z,55.38
2022-12-18T01:12:47.680Z,51.80
2022-12-18T01:15:17.256Z,58.38
2022-12-18T01:17:46.012Z,50.58
2022-12-18T01:20:15.348Z,51.50
2022-12-18T01:22:43.611Z,50.75
2022-12-18T01:25:13.499Z,45.63
2022-12-18T01:27:41.848Z,48.88
2022-12-18T01:30:11.491Z,45.03
2022-12-18T01:32:40.249Z,41.10
2022-12-18T01:35:09.900Z,46.38
2022-12-18T01:37:38.169Z,43.17
2022-12-18T01:40:08.488Z,40.63
2022-12-18T01:42:38.446Z,43.53
2022-12-18T01:45:24.841Z,39.80
2022-12-18T01:47:57.260Z,40.38
2022-12-18T01:53:02.180Z,35.30
2022-12-18T01:55:37.425Z,34.42
2022-12-18T01:58:07.572Z,42.90
2022-12-18T02:00:36.660Z,38.47
2022-12-18T02:03:05.173Z,39.60
2022-12-18T02:05:46.556Z,43.92
2022-12-18T02:08:23.217Z,36.90
2022-12-18T02:11:03.595Z,36.15
2022-12-18T02:13:46.163Z,35.53
2022-12-18T02:16:23.783Z,41.17
2022-12-18T02:19:00.395Z,39.88
2022-12-18T02:21:41.534Z,41.95
2022-12-18T02:24:30.830Z,42.25
2022-12-18T02:27:06.169Z,39.17
2022-12-18T02:29:40.970Z,41.65
2022-12-18T02:32:16.513Z,41.92
2022-12-18T02:34:46.792Z,39.50
2022-12-18T02:37:20.704Z,41.13
2022-12-18T02:39:55.403Z,37.47
2022-12-18T02:42:26.132Z,39.92
2022-12-18T02:44:57.992Z,39.40
2022-12-18T02:50:13.294Z,40.28
2022-12-18T02:52:55.839Z,43.83
2022-12-18T02:55:36.108Z,36.85
2022-12-18T02:58:18.229Z,33.00
2022-12-18T03:00:59.274Z,34.75
2022-12-18T03:03:38.224Z,31.70
2022-12-18T03:06:12.141Z,34.50
2022-12-18T03:08:45.773Z,34.10
2022-12-18T03:11:16.296Z,34.38
2022-12-18T03:13:52.836Z,34.78
2022-12-18T03:16:28.206Z,29.55
2022-12-18T03:19:00.734Z,31.95
2022-12-18T03:21:35.690Z,35.08
2022-12-18T03:24:08.498Z,34.13
2022-12-18T03:26:42.812Z,33.03
2022-12-18T03:29:23.420Z,33.85
2022-12-18T03:31:57.163Z,30.90
2022-12-18T03:34:32.089Z,32.30
2022-12-18T03:37:04.788Z,35.92
2022-12-18T03:39:34.904Z,39.97
2022-12-18T03:42:10.622Z,36.97
2022-12-18T03:44:55.973Z,42.42
2022-12-18T03:47:30.446Z,45.97
2022-12-18T03:50:13.222Z,40.92
2022-12-18T03:52:52.132Z,39.55
2022-12-18T03:55:25.185Z,36.35
2022-12-18T03:58:01.254Z,36.67
2022-12-18T04:00:40.742Z,42.95
2022-12-18T04:03:13.241Z,37.75
2022-12-18T04:05:47.696Z,37.10
2022-12-18T04:08:17.205Z,35.70
2022-12-18T04:10:53.501Z,38.42
2022-12-18T04:13:25.871Z,40.20
2022-12-18T04:15:56.180Z,33.10
2022-12-18T04:18:25.830Z,38.30
2022-12-18T04:20:54.739Z,41.25
2022-12-18T04:23:24.850Z,35.17
2022-12-18T04:25:55.018Z,36.15
2022-12-18T04:28:37.365Z,39.60
2022-12-18T04:31:08.265Z,40.45
2022-12-18T04:33:37.903Z,40.90
2022-12-18T04:36:08.686Z,44.03
2022-12-18T04:38:37.631Z,40.22
2022-12-18T04:41:10.400Z,41.80
2022-12-18T04:43:39.517Z,40.88
2022-12-18T04:46:11.237Z,36.17
2022-12-18T04:48:40.207Z,40.03
2022-12-18T04:51:09.080Z,40.50
2022-12-18T04:53:37.728Z,39.33
2022-12-18T04:56:09.645Z,38.83
2022-12-18T04:58:38.191Z,42.65
2022-12-18T05:01:07.268Z,41.28
2022-12-18T05:03:38.741Z,39.90
2022-12-18T05:06:08.753Z,35.93
2022-12-18T05:08:37.210Z,39.50
2022-12-18T05:11:08.196Z,42.92
2022-12-18T05:13:39.120Z,40.90
2022-12-18T05:16:09.076Z,39.78
2022-12-18T05:18:40.100Z,38.65
2022-12-18T05:21:08.601Z,37.95
2022-12-18T05:23:37.419Z,38.60
2022-12-18T05:26:08.767Z,40.83
2022-12-18T05:28:38.526Z,38.28
2022-12-18T05:31:07.905Z,37.60
2022-12-18T05:33:39.173Z,38.75
2022-12-18T05:36:10.033Z,34.28
2022-12-18T05:38:40.727Z,38.00
2022-12-18T05:41:10.498Z,36.42
2022-12-18T05:43:41.640Z,40.05
2022-12-18T05:46:14.296Z,43.30
2022-12-18T05:48:44.426Z,38.90
2022-12-18T05:51:16.703Z,39.25
2022-12-18T05:53:45.850Z,39.92
2022-12-18T05:56:18.056Z,36.20
2022-12-18T05:58:47.184Z,39.95
2022-12-18T06:01:19.141Z,43.55
2022-12-18T06:03:49.634Z,38.53
2022-12-18T06:06:20.911Z,41.25
2022-12-18T06:08:49.606Z,42.67
2022-12-18T06:11:21.451Z,36.28
2022-12-18T06:13:57.960Z,36.03
2022-12-18T06:16:27.862Z,41.67
2022-12-18T06:18:58.789Z,39.83
2022-12-18T06:21:28.595Z,41.65
2022-12-18T06:23:57.085Z,52.28
2022-12-18T06:26:28.571Z,46.33
2022-12-18T06:28:57.626Z,43.45
2022-12-18T06:31:27.377Z,46.38
2022-12-18T06:33:57.101Z,43.13
2022-12-18T06:36:25.858Z,44.05
2022-12-18T06:38:54.119Z,47.25
2022-12-18T06:41:24.100Z,46.35
2022-12-18T06:43:56.789Z,43.53
2022-12-18T06:46:27.799Z,50.25
2022-12-18T06:48:57.685Z,40.97
2022-12-18T06:51:28.178Z,39.53
2022-12-18T06:53:56.673Z,44.05
2022-12-18T06:56:25.074Z,45.80
2022-12-18T06:58:53.719Z,38.67
2022-12-18T07:01:22.007Z,35.45
2022-12-18T07:03:55.393Z,40.30
2022-12-18T07:06:27.492Z,42.70
2022-12-18T07:08:57.024Z,42.10
2022-12-18T07:11:25.572Z,40.75
2022-12-18T07:13:55.556Z,41.83
2022-12-18T07:16:25.894Z,40.33
2022-12-18T07:18:56.356Z,44.35
2022-12-18T07:21:27.141Z,40.88
2022-12-18T07:23:55.781Z,44.33
2022-12-18T07:26:25.100Z,40.90
2022-12-18T07:28:58.595Z,44.53
2022-12-18T07:31:27.907Z,47.40
2022-12-18T07:33:57.215Z,46.58
2022-12-18T07:36:27.168Z,43.83
2022-12-18T07:38:55.873Z,40.75
2022-12-18T07:41:24.363Z,43.05
2022-12-18T07:43:52.851Z,44.30
2022-12-18T07:46:21.613Z,40.92
2022-12-18T07:48:50.615Z,45.38
2022-12-18T07:51:20.136Z,44.60
2022-12-18T07:53:52.029Z,42.08
2022-12-18T07:59:00.639Z,46.20
2022-12-18T08:01:29.552Z,46.20
2022-12-18T08:03:59.682Z,47.15
2022-12-18T08:06:28.199Z,44.78
2022-12-18T08:08:58.866Z,48.25
2022-12-18T08:11:29.836Z,49.78
2022-12-18T08:13:58.765Z,48.22
2022-12-18T08:16:27.807Z,51.65
2022-12-18T08:18:56.513Z,55.40
2022-12-18T08:21:28.155Z,43.30
2022-12-18T08:24:00.324Z,44.87
2022-12-18T08:26:30.869Z,49.35
2022-12-18T08:29:01.403Z,45.22
2022-12-18T08:31:31.657Z,48.05
2022-12-18T08:34:00.040Z,49.55
2022-12-18T08:36:28.458Z,50.15
2022-12-18T08:39:00.700Z,44.55
2022-12-18T08:41:28.926Z,42.63
2022-12-18T08:44:14.761Z,47.13
2022-12-18T08:46:45.682Z,43.78
2022-12-18T08:49:14.324Z,50.50
2022-12-18T08:51:42.964Z,39.70
2022-12-18T08:54:14.754Z,49.90
2022-12-18T08:56:42.956Z,34.88
2022-12-18T08:59:18.854Z,42.83
2022-12-18T09:01:49.448Z,46.47
2022-12-18T09:04:18.039Z,43.60
2022-12-18T09:06:46.355Z,43.47
2022-12-18T09:09:16.207Z,34.38
2022-12-18T09:11:44.526Z,37.45
2022-12-18T09:14:13.019Z,38.25
2022-12-18T09:16:41.535Z,37.83
2022-12-18T09:19:11.132Z,37.67
2022-12-18T09:21:43.354Z,40.65
2022-12-18T09:24:17.630Z,36.05
2022-12-18T09:26:47.589Z,44.20
2022-12-18T09:29:18.915Z,36.80
2022-12-18T09:31:47.611Z,35.35
2022-12-18T09:34:15.904Z,34.67
2022-12-18T09:36:44.328Z,39.67
2022-12-18T09:39:12.719Z,39.30
2022-12-18T09:41:58.103Z,41.78
2022-12-18T09:44:30.751Z,45.15
2022-12-18T09:47:14.598Z,36.90
2022-12-18T09:49:46.366Z,43.50
2022-12-18T09:52:23.784Z,38.65
2022-12-18T09:54:57.151Z,41.40
2022-12-18T09:57:27.932Z,38.90
2022-12-18T10:00:01.315Z,36.97
2022-12-18T10:02:40.190Z,35.58
2022-12-18T10:05:13.815Z,36.08
2022-12-18T10:07:55.635Z,37.92
2022-12-18T10:10:40.062Z,41.38
2022-12-18T10:13:23.686Z,41.13
2022-12-18T10:16:16.295Z,36.88
2022-12-18T10:19:11.931Z,40.47
2022-12-18T10:21:49.400Z,39.75
2022-12-18T10:24:28.570Z,43.60
2022-12-18T10:27:06.916Z,42.25
2022-12-18T10:29:36.892Z,35.53
2022-12-18T10:32:05.800Z,37.35
2022-12-18T10:34:34.863Z,36.55
2022-12-18T10:37:04.031Z,46.67
2022-12-18T10:39:32.495Z,56.50
2022-12-18T10:42:18.208Z,54.75
2022-12-18T10:44:48.400Z,47.75
2022-12-18T10:47:20.771Z,38.92
2022-12-18T10:49:53.075Z,38.67
2022-12-18T10:52:24.560Z,36.00
2022-12-18T10:54:59.144Z,39.53
2022-12-18T10:57:37.940Z,39.83
2022-12-18T11:00:26.506Z,39.28
2022-12-18T11:02:55.653Z,44.22
2022-12-18T11:05:33.917Z,40.95
2022-12-18T11:08:03.250Z,39.42
2022-12-18T11:10:35.541Z,39.70
2022-12-18T11:13:22.893Z,41.50
2022-12-18T11:15:53.255Z,38.00
2022-12-18T11:18:28.225Z,46.22
2022-12-18T11:20:59.742Z,41.60
2022-12-18T11:23:29.424Z,42.10
2022-12-18T11:26:01.749Z,42.45
2022-12-18T11:28:39.795Z,40.95
2022-12-18T11:31:25.022Z,44.20
2022-12-18T11:34:28.078Z,42.05
2022-12-18T11:36:51.084Z,40.47
2022-12-18T11:39:26.785Z,39.92
2022-12-18T11:42:13.368Z,42.58
2022-12-18T11:44:50.413Z,42.03
2022-12-18T11:47:32.341Z,39.33
2022-12-18T11:50:04.171Z,40.23
2022-12-18T11:52:39.775Z,42.13
2022-12-18T11:55:16.069Z,47.33
2022-12-18T11:57:56.656Z,40.05
2022-12-18T12:00:26.243Z,37.30
2022-12-18T12:03:49.603Z,38.40
2022-12-18T12:06:25.640Z,39.15
2022-12-18T12:09:11.162Z,35.03
2022-12-18T12:11:58.669Z,37.20
2022-12-18T12:14:44.966Z,41.97
2022-12-18T12:17:25.031Z,42.33
2022-12-18T12:20:04.605Z,37.58
2022-12-18T12:22:46.710Z,38.65
2022-12-18T12:25:34.764Z,38.10
2022-12-18T12:28:26.707Z,40.65
2022-12-18T12:31:09.047Z,38.05
2022-12-18T12:33:44.889Z,37.90
2022-12-18T12:36:23.108Z,39.05
2022-12-18T12:38:58.484Z,37.03
2022-12-18T12:41:47.139Z,38.50
2022-12-18T12:44:21.393Z,42.08
2022-12-18T12:46:52.120Z,40.45
2022-12-18T12:49:26.279Z,40.95
2022-12-18T12:52:06.072Z,43.85
2022-12-18T12:54:37.197Z,47.78
2022-12-18T12:57:14.766Z,43.47
2022-12-18T12:59:59.079Z,38.97
2022-12-18T13:02:35.827Z,41.03
2022-12-18T13:05:17.594Z,43.95
2022-12-18T13:07:56.331Z,51.55
2022-12-18T13:10:37.475Z,57.75
2022-12-18T13:13:08.978Z,45.15
2022-12-18T13:15:44.101Z,48.95
2022-12-18T13:18:19.900Z,42.85
2022-12-18T13:20:55.342Z,45.97
2022-12-18T13:23:37.504Z,38.92
2022-12-18T13:26:35.488Z,39.97
2022-12-18T13:29:07.290Z,40.30
2022-12-18T13:32:03.960Z,46.03
2022-12-18T13:34:33.696Z,43.25
2022-12-18T13:37:53.155Z,46.25
2022-12-18T13:40:59.640Z,47.20
2022-12-18T13:43:44.615Z,40.60
2022-12-18T13:46:26.502Z,46.47
2022-12-18T13:49:05.720Z,41.75
2022-12-18T13:51:37.398Z,40.17
2022-12-18T13:54:20.825Z,43.05
2022-12-18T13:56:51.462Z,42.45
2022-12-18T13:59:24.741Z,39.67
2022-12-18T14:01:57.366Z,39.83
2022-12-18T14:04:31.420Z,38.30
2022-12-18T14:07:06.056Z,40.03
2022-12-18T14:09:39.573Z,42.55
2022-12-18T14:12:36.838Z,39.55
2022-12-18T14:15:14.441Z,41.78
2022-12-18T14:17:44.338Z,44.97
2022-12-18T14:20:16.944Z,50.88
2022-12-18T14:22:47.417Z,40.42
2022-12-18T14:25:23.315Z,42.97
2022-12-18T14:28:03.915Z,40.60
2022-12-18T14:30:37.533Z,43.72
2022-12-18T14:33:08.001Z,42.33
2022-12-18T14:35:39.982Z,44.45
2022-12-18T14:38:24.827Z,41.47
2022-12-18T14:40:59.729Z,47.08
2022-12-18T14:43:33.444Z,42.40
2022-12-18T14:46:02.845Z,42.75
2022-12-18T14:48:40.725Z,42.47
2022-12-18T14:51:19.444Z,46.42
2022-12-18T14:53:54.287Z,42.22
2022-12-18T14:56:26.507Z,41.92
2022-12-18T14:58:58.751Z,41.03
2022-12-18T15:01:32.352Z,41.00
2022-12-18T15:04:03.977Z,50.67
2022-12-18T15:06:36.062Z,41.42
2022-12-18T15:09:07.789Z,43.15
2022-12-18T15:11:47.424Z,42.10
2022-12-18T15:14:37.323Z,46.67
2022-12-18T15:17:15.618Z,46.80
2022-12-18T15:19:46.611Z,47.70
2022-12-18T15:22:27.974Z,42.58
2022-12-18T15:24:57.698Z,46.38
2022-12-18T15:27:31.145Z,45.20
2022-12-18T15:30:24.398Z,45.05
2022-12-18T15:32:55.652Z,46.83
2022-12-18T15:35:26.294Z,48.28
2022-12-18T15:37:55.174Z,46.25
2022-12-18T15:40:26.210Z,49.65
2022-12-18T15:43:14.896Z,45.78
2022-12-18T15:45:44.476Z,43.55
2022-12-18T15:48:23.047Z,45.90
2022-12-18T15:50:52.619Z,47.90
2022-12-18T15:53:21.383Z,50.33
2022-12-18T15:56:07.512Z,45.42
2022-12-18T15:58:36.835Z,46.05
2022-12-18T16:01:07.250Z,50.72
2022-12-18T16:03:35.579Z,46.88
2022-12-18T16:06:04.334Z,47.35
2022-12-18T16:08:33.453Z,49.95
2022-12-18T16:11:03.013Z,47.58
2022-12-18T16:13:31.303Z,46.63
2022-12-18T16:16:00.035Z,49.72
2022-12-18T16:18:29.884Z,48.38
2022-12-18T16:20:58.245Z,49.58
2022-12-18T16:23:28.198Z,50.97
2022-12-18T16:25:56.857Z,52.22
2022-12-18T16:28:25.276Z,51.72
2022-12-18T16:30:53.870Z,55.25
2022-12-18T16:33:22.228Z,63.83
2022-12-18T16:35:55.610Z,60.88
2022-12-18T16:38:24.319Z,54.50
2022-12-18T16:41:10.273Z,53.83
2022-12-18T16:43:39.269Z,57.78
2022-12-18T16:46:07.875Z,56.67
2022-12-18T16:48:36.759Z,60.58
2022-12-18T16:51:07.598Z,55.92
2022-12-18T16:53:35.950Z,53.00
2022-12-18T16:56:05.351Z,52.17
2022-12-18T16:58:35.409Z,50.45
2022-12-18T17:01:09.361Z,81.40
2022-12-18T17:03:38.375Z,53.95
2022-12-18T17:06:09.713Z,54.85
2022-12-18T17:08:38.260Z,53.42
2022-12-18T17:11:08.269Z,54.70
2022-12-18T17:13:36.961Z,52.70
2022-12-18T17:16:06.566Z,57.40
2022-12-18T17:18:36.224Z,58.85
2022-12-18T17:21:09.713Z,48.60
2022-12-18T17:23:39.121Z,54.13
2022-12-18T17:26:10.482Z,54.67
2022-12-18T17:28:41.163Z,58.40
2022-12-18T17:31:14.137Z,54.60
2022-12-18T17:33:43.255Z,56.80
2022-12-18T17:36:13.497Z,60.08
2022-12-18T17:38:41.935Z,58.97
2022-12-18T17:41:12.699Z,60.65
2022-12-18T17:43:45.609Z,79.63
2022-12-18T17:46:16.039Z,66.22
2022-12-18T17:48:46.211Z,85.57
2022-12-18T17:51:17.793Z,149.00
2022-12-18T17:53:46.755Z,88.75
2022-12-18T17:56:17.774Z,65.82
2022-12-18T17:58:48.003Z,55.80
2022-12-18T18:01:19.334Z,57.50
2022-12-18T18:03:50.949Z,59.08
2022-12-18T18:06:24.107Z,53.13
2022-12-18T18:08:53.616Z,59.08
2022-12-18T18:11:42.457Z,62.60
2022-12-18T18:14:15.963Z,69.35
2022-12-18T18:16:47.579Z,61.42
2022-12-18T18:19:18.794Z,58.55
2022-12-18T18:21:50.704Z,58.92
2022-12-18T18:24:24.071Z,55.20
2022-12-18T18:26:52.726Z,55.58
2022-12-18T18:29:23.346Z,54.17
2022-12-18T18:31:52.745Z,52.38
2022-12-18T18:34:24.446Z,53.85
2022-12-18T18:36:54.392Z,57.73
2022-12-18T18:39:22.759Z,56.22
2022-12-18T18:41:51.824Z,53.88
2022-12-18T18:44:25.767Z,52.45
2022-12-18T18:46:56.705Z,51.08
2022-12-18T18:49:27.559Z,56.88
2022-12-18T18:51:59.086Z,51.75
2022-12-18T18:54:27.508Z,52.08
2022-12-18T18:59:44.568Z,50.67
2022-12-18T19:02:14.322Z,53.78
2022-12-18T19:04:45.661Z,51.97
2022-12-18T19:07:29.728Z,55.50
2022-12-18T19:10:04.740Z,64.45
2022-12-18T19:12:52.909Z,54.35
2022-12-18T19:15:23.385Z,52.15
2022-12-18T19:17:52.315Z,76.97
2022-12-18T19:20:21.308Z,65.00
2022-12-18T19:22:55.743Z,55.17
2022-12-18T19:25:38.599Z,52.47
2022-12-18T19:28:21.252Z,43.53
2022-12-18T19:30:58.669Z,49.13
2022-12-18T19:33:45.046Z,40.70
2022-12-18T19:36:19.509Z,43.45
2022-12-18T19:38:50.982Z,45.53
2022-12-18T19:41:20.889Z,46.65
2022-12-18T19:43:50.058Z,48.47
2022-12-18T19:46:22.264Z,43.72
2022-12-18T19:48:51.550Z,50.22
2022-12-18T19:51:23.884Z,47.47
2022-12-18T19:53:58.876Z,47.17
2022-12-18T19:56:31.901Z,49.75
2022-12-18T19:59:00.260Z,49.53
2022-12-18T20:01:30.061Z,46.97
2022-12-18T20:03:58.590Z,50.65
2022-12-18T20:06:30.563Z,56.10
2022-12-18T20:09:03.035Z,55.78
2022-12-18T20:11:40.126Z,60.65
2022-12-18T20:14:11.298Z,64.03
2022-12-18T20:16:40.405Z,54.92
2022-12-18T20:19:10.013Z,60.95
2022-12-18T20:21:39.421Z,57.22
2022-12-18T20:24:10.009Z,56.40
2022-12-18T20:26:38.320Z,58.40
2022-12-18T20:29:06.887Z,55.35
2022-12-18T20:31:35.752Z,59.33
2022-12-18T20:34:06.094Z,59.35
2022-12-18T20:36:36.407Z,56.78
2022-12-18T20:39:08.931Z,55.15
2022-12-18T20:41:39.290Z,54.70
2022-12-18T20:44:21.760Z,55.92
2022-12-18T20:46:54.785Z,54.95
2022-12-18T20:49:24.670Z,54.90
2022-12-18T20:51:54.821Z,59.97
2022-12-18T20:54:27.143Z,60.05
2022-12-18T20:56:55.793Z,59.33
2022-12-18T20:59:25.524Z,59.25
2022-12-18T21:01:54.658Z,62.22
2022-12-18T21:04:23.658Z,64.05
2022-12-18T21:07:01.906Z,65.13
2022-12-18T21:09:37.364Z,67.95
2022-12-18T21:12:29.373Z,67.60
2022-12-18T21:15:01.626Z,67.35
2022-12-18T21:17:30.150Z,69.97
2022-12-18T21:20:02.979Z,74.93
2022-12-18T21:22:34.614Z,75.40
2022-12-18T21:25:04.527Z,70.72
2022-12-18T21:27:33.089Z,74.82
2022-12-18T21:30:01.408Z,72.50
2022-12-18T21:32:33.566Z,69.43
2022-12-18T21:35:05.024Z,77.15
2022-12-18T21:37:33.354Z,78.05
2022-12-18T21:40:03.670Z,76.88
2022-12-18T21:42:50.106Z,75.32
2022-12-18T21:45:18.736Z,70.60
2022-12-18T21:47:47.080Z,70.50
2022-12-18T21:50:15.734Z,75.38
2022-12-18T21:52:44.213Z,73.05
2022-12-18T21:55:13.924Z,71.05
2022-12-18T21:57:42.199Z,77.22
2022-12-18T22:00:18.990Z,78.95
2022-12-18T22:03:08.705Z,73.80
2022-12-18T22:05:37.650Z,73.65
2022-12-18T22:08:07.535Z,67.75
2022-12-18T22:10:38.650Z,77.43
2022-12-18T22:13:07.965Z,71.07
2022-12-18T22:15:36.527Z,78.80
2022-12-18T22:18:05.151Z,82.28
2022-12-18T22:20:33.402Z,80.07
2022-12-18T22:23:05.621Z,80.85
2022-12-18T22:25:35.840Z,74.68
2022-12-18T22:28:27.104Z,77.60
2022-12-18T22:30:59.573Z,82.18
2022-12-18T22:33:29.627Z,76.80
2022-12-18T22:35:57.880Z,74.43
2022-12-18T22:38:27.175Z,77.53
2022-12-18T22:40:56.408Z,72.20
2022-12-18T22:43:26.579Z,78.68
2022-12-18T22:45:55.307Z,73.75
2022-12-18T22:48:24.281Z,75.40
2022-12-18T22:50:53.443Z,67.57
2022-12-18T22:53:27.936Z,68.80
2022-12-18T22:56:02.596Z,73.80
2022-12-18T22:58:32.275Z,73.15
2022-12-18T23:01:01.074Z,77.88
2022-12-18T23:03:30.351Z,73.97
2022-12-18T23:06:05.399Z,79.40
2022-12-18T23:08:34.613Z,80.88
2022-12-18T23:11:03.577Z,70.20
2022-12-18T23:13:34.829Z,67.13
2022-12-18T23:16:07.912Z,75.40
2022-12-18T23:18:37.291Z,65.25
2022-12-18T23:21:07.158Z,73.90
2022-12-18T23:23:36.648Z,67.85
2022-12-18T23:26:07.855Z,72.93
2022-12-18T23:28:38.942Z,72.07
2022-12-18T23:31:09.900Z,77.43
2022-12-18T23:33:38.282Z,75.10
2022-12-18T23:36:08.124Z,74.47
2022-12-18T23:38:37.205Z,65.68
2022-12-18T23:41:10.269Z,66.65
2022-12-18T23:43:40.887Z,70.38
2022-12-18T23:46:19.519Z,64.68
2022-12-18T23:48:48.490Z,62.30
2022-12-18T23:51:18.630Z,64.25
2022-12-18T23:53:46.991Z,65.65
2022-12-18T23:56:15.573Z,64.07
2022-12-18T23:58:48.902Z,58.58
